sensor_id;sensor_type;location;lat;lon;timestamp;temperature;humidity
17994;DHT22;9122;48.406;9.984;2023-05-10T00:01:49;16.60;98.70
17994;DHT22;9122;48.406;9.984;2023-05-10T00:04:33;16.60;98.50
17994;DHT22;9122;48.406;9.984;2023-05-10T00:07:20;16.50;98.50
17994;DHT22;9122;48.406;9.984;2023-05-10T00:10:05;16.50;98.40
17994;DHT22;9122;48.406;9.984;2023-05-10T00:12:50;16.50;98.40
17994;DHT22;9122;48.406;9.984;2023-05-10T00:15:37;16.50;98.50
17994;DHT22;9122;48.406;9.984;2023-05-10T00:18:21;16.50;98.60
17994;DHT22;9122;48.406;9.984;2023-05-10T00:21:05;16.50;98.70
17994;DHT22;9122;48.406;9.984;2023-05-10T00:23:50;16.50;98.80
17994;DHT22;9122;48.406;9.984;2023-05-10T00:26:34;16.40;98.90
17994;DHT22;9122;48.406;9.984;2023-05-10T00:29:19;16.40;98.90
17994;DHT22;9122;48.406;9.984;2023-05-10T00:32:03;16.40;98.90
17994;DHT22;9122;48.406;9.984;2023-05-10T00:34:48;16.40;98.90
17994;DHT22;9122;48.406;9.984;2023-05-10T00:37:32;16.40;99.00
17994;DHT22;9122;48.406;9.984;2023-05-10T00:40:16;16.40;99.00
17994;DHT22;9122;48.406;9.984;2023-05-10T00:43:01;16.30;99.00
17994;DHT22;9122;48.406;9.984;2023-05-10T00:45:46;16.30;98.90
17994;DHT22;9122;48.406;9.984;2023-05-10T00:48:31;16.30;99.00
17994;DHT22;9122;48.406;9.984;2023-05-10T00:51:15;16.30;99.00
17994;DHT22;9122;48.406;9.984;2023-05-10T00:54:00;16.30;99.10
17994;DHT22;9122;48.406;9.984;2023-05-10T00:56:44;16.20;99.10
17994;DHT22;9122;48.406;9.984;2023-05-10T00:59:33;16.20;99.10
17994;DHT22;9122;48.406;9.984;2023-05-10T01:02:18;16.20;99.10
17994;DHT22;9122;48.406;9.984;2023-05-10T01:05:03;16.20;99.00
17994;DHT22;9122;48.406;9.984;2023-05-10T01:07:47;16.20;99.10
17994;DHT22;9122;48.406;9.984;2023-05-10T01:10:38;16.20;99.10
17994;DHT22;9122;48.406;9.984;2023-05-10T01:13:36;16.10;99.10
17994;DHT22;9122;48.406;9.984;2023-05-10T01:16:31;16.10;99.10
17994;DHT22;9122;48.406;9.984;2023-05-10T01:19:22;16.10;99.20
17994;DHT22;9122;48.406;9.984;2023-05-10T01:35:03;16.10;99.40
17994;DHT22;9122;48.406;9.984;2023-05-10T01:40:52;16.00;99.50
17994;DHT22;9122;48.406;9.984;2023-05-10T01:46:40;16.00;99.50
17994;DHT22;9122;48.406;9.984;2023-05-10T01:49:27;16.00;99.50
17994;DHT22;9122;48.406;9.984;2023-05-10T01:52:17;16.00;99.40
17994;DHT22;9122;48.406;9.984;2023-05-10T01:55:07;16.00;99.40
17994;DHT22;9122;48.406;9.984;2023-05-10T01:58:03;16.00;99.40
17994;DHT22;9122;48.406;9.984;2023-05-10T02:00:49;16.00;99.30
17994;DHT22;9122;48.406;9.984;2023-05-10T02:03:35;16.00;99.30
17994;DHT22;9122;48.406;9.984;2023-05-10T02:06:22;16.00;99.30
17994;DHT22;9122;48.406;9.984;2023-05-10T02:09:09;16.00;99.40
17994;DHT22;9122;48.406;9.984;2023-05-10T02:11:55;16.00;99.30
17994;DHT22;9122;48.406;9.984;2023-05-10T02:14:42;16.00;99.40
17994;DHT22;9122;48.406;9.984;2023-05-10T02:17:28;16.00;99.30
17994;DHT22;9122;48.406;9.984;2023-05-10T02:20:16;16.00;99.30
17994;DHT22;9122;48.406;9.984;2023-05-10T02:23:01;15.90;98.90
17994;DHT22;9122;48.406;9.984;2023-05-10T02:25:48;15.90;98.80
17994;DHT22;9122;48.406;9.984;2023-05-10T02:28:33;15.90;98.60
17994;DHT22;9122;48.406;9.984;2023-05-10T02:31:20;15.90;98.50
17994;DHT22;9122;48.406;9.984;2023-05-10T02:34:06;15.80;98.40
17994;DHT22;9122;48.406;9.984;2023-05-10T02:36:52;15.80;98.10
17994;DHT22;9122;48.406;9.984;2023-05-10T02:39:38;15.80;98.10
17994;DHT22;9122;48.406;9.984;2023-05-10T02:42:27;15.80;98.00
17994;DHT22;9122;48.406;9.984;2023-05-10T02:45:15;15.80;97.90
17994;DHT22;9122;48.406;9.984;2023-05-10T02:48:01;15.70;97.80
17994;DHT22;9122;48.406;9.984;2023-05-10T02:50:50;15.70;97.70
17994;DHT22;9122;48.406;9.984;2023-05-10T02:53:36;15.70;97.80
17994;DHT22;9122;48.406;9.984;2023-05-10T02:56:30;15.70;97.80
17994;DHT22;9122;48.406;9.984;2023-05-10T02:59:15;15.60;97.90
17994;DHT22;9122;48.406;9.984;2023-05-10T03:02:00;15.60;97.80
17994;DHT22;9122;48.406;9.984;2023-05-10T03:04:46;15.60;97.80
17994;DHT22;9122;48.406;9.984;2023-05-10T03:07:30;15.60;97.60
17994;DHT22;9122;48.406;9.984;2023-05-10T03:10:15;15.60;97.50
17994;DHT22;9122;48.406;9.984;2023-05-10T03:16:25;15.60;97.40
17994;DHT22;9122;48.406;9.984;2023-05-10T03:19:30;15.50;97.40
17994;DHT22;9122;48.406;9.984;2023-05-10T03:22:24;15.50;97.60
17994;DHT22;9122;48.406;9.984;2023-05-10T03:25:10;15.50;97.50
17994;DHT22;9122;48.406;9.984;2023-05-10T03:27:56;15.50;97.40
17994;DHT22;9122;48.406;9.984;2023-05-10T03:30:42;15.40;97.40
17994;DHT22;9122;48.406;9.984;2023-05-10T03:33:27;15.40;97.50
17994;DHT22;9122;48.406;9.984;2023-05-10T03:36:14;15.40;97.40
17994;DHT22;9122;48.406;9.984;2023-05-10T03:38:59;15.40;97.40
17994;DHT22;9122;48.406;9.984;2023-05-10T03:41:43;15.40;97.40
17994;DHT22;9122;48.406;9.984;2023-05-10T03:44:27;15.40;97.40
17994;DHT22;9122;48.406;9.984;2023-05-10T03:47:12;15.40;97.40
17994;DHT22;9122;48.406;9.984;2023-05-10T03:49:56;15.30;97.40
17994;DHT22;9122;48.406;9.984;2023-05-10T03:52:41;15.30;97.40
17994;DHT22;9122;48.406;9.984;2023-05-10T03:55:25;15.30;97.40
17994;DHT22;9122;48.406;9.984;2023-05-10T03:58:11;15.30;97.40
17994;DHT22;9122;48.406;9.984;2023-05-10T04:00:55;15.20;97.50
17994;DHT22;9122;48.406;9.984;2023-05-10T04:03:40;15.20;97.40
17994;DHT22;9122;48.406;9.984;2023-05-10T04:06:24;15.20;97.40
17994;DHT22;9122;48.406;9.984;2023-05-10T04:09:08;15.20;97.40
17994;DHT22;9122;48.406;9.984;2023-05-10T04:11:53;15.20;97.40
17994;DHT22;9122;48.406;9.984;2023-05-10T04:14:37;15.20;97.40
17994;DHT22;9122;48.406;9.984;2023-05-10T04:17:22;15.10;97.30
17994;DHT22;9122;48.406;9.984;2023-05-10T04:20:07;15.10;97.30
17994;DHT22;9122;48.406;9.984;2023-05-10T04:22:52;15.10;97.30
17994;DHT22;9122;48.406;9.984;2023-05-10T04:25:36;15.10;97.40
17994;DHT22;9122;48.406;9.984;2023-05-10T04:28:20;15.10;97.50
17994;DHT22;9122;48.406;9.984;2023-05-10T04:31:07;15.10;97.50
17994;DHT22;9122;48.406;9.984;2023-05-10T04:33:52;15.00;97.30
17994;DHT22;9122;48.406;9.984;2023-05-10T04:36:36;15.00;97.40
17994;DHT22;9122;48.406;9.984;2023-05-10T04:39:21;15.00;97.50
17994;DHT22;9122;48.406;9.984;2023-05-10T04:42:05;15.00;97.50
17994;DHT22;9122;48.406;9.984;2023-05-10T04:44:49;15.00;97.50
17994;DHT22;9122;48.406;9.984;2023-05-10T04:47:34;15.00;97.50
17994;DHT22;9122;48.406;9.984;2023-05-10T04:50:18;15.00;97.50
17994;DHT22;9122;48.406;9.984;2023-05-10T04:53:02;15.00;97.60
17994;DHT22;9122;48.406;9.984;2023-05-10T04:55:46;14.90;97.70
17994;DHT22;9122;48.406;9.984;2023-05-10T04:58:32;15.00;97.70
17994;DHT22;9122;48.406;9.984;2023-05-10T05:01:16;15.00;97.70
17994;DHT22;9122;48.406;9.984;2023-05-10T05:04:01;15.00;97.60
17994;DHT22;9122;48.406;9.984;2023-05-10T05:06:45;15.00;97.80
17994;DHT22;9122;48.406;9.984;2023-05-10T05:09:30;15.00;97.40
17994;DHT22;9122;48.406;9.984;2023-05-10T05:12:16;14.90;97.30
17994;DHT22;9122;48.406;9.984;2023-05-10T05:15:01;14.90;97.40
17994;DHT22;9122;48.406;9.984;2023-05-10T05:17:46;14.90;97.50
17994;DHT22;9122;48.406;9.984;2023-05-10T05:20:32;14.90;97.60
17994;DHT22;9122;48.406;9.984;2023-05-10T05:23:17;14.90;97.70
17994;DHT22;9122;48.406;9.984;2023-05-10T05:26:02;15.00;97.70
17994;DHT22;9122;48.406;9.984;2023-05-10T05:28:47;15.00;97.70
17994;DHT22;9122;48.406;9.984;2023-05-10T05:31:38;14.90;97.70
17994;DHT22;9122;48.406;9.984;2023-05-10T05:34:22;14.90;97.60
17994;DHT22;9122;48.406;9.984;2023-05-10T05:37:07;15.00;97.70
17994;DHT22;9122;48.406;9.984;2023-05-10T05:39:51;15.00;97.70
17994;DHT22;9122;48.406;9.984;2023-05-10T05:42:36;15.00;97.80
17994;DHT22;9122;48.406;9.984;2023-05-10T05:45:20;15.00;97.70
17994;DHT22;9122;48.406;9.984;2023-05-10T05:48:05;15.00;97.80
17994;DHT22;9122;48.406;9.984;2023-05-10T05:50:50;15.00;97.90
17994;DHT22;9122;48.406;9.984;2023-05-10T05:53:34;15.00;97.90
17994;DHT22;9122;48.406;9.984;2023-05-10T05:56:20;15.00;97.80
17994;DHT22;9122;48.406;9.984;2023-05-10T05:59:08;15.00;97.90
17994;DHT22;9122;48.406;9.984;2023-05-10T06:01:53;15.00;98.00
17994;DHT22;9122;48.406;9.984;2023-05-10T06:04:37;15.00;98.00
17994;DHT22;9122;48.406;9.984;2023-05-10T06:07:22;15.00;97.90
17994;DHT22;9122;48.406;9.984;2023-05-10T06:10:07;15.00;98.00
17994;DHT22;9122;48.406;9.984;2023-05-10T06:12:53;15.00;98.00
17994;DHT22;9122;48.406;9.984;2023-05-10T06:15:37;15.00;97.90
17994;DHT22;9122;48.406;9.984;2023-05-10T06:18:22;15.00;97.70
17994;DHT22;9122;48.406;9.984;2023-05-10T06:21:06;15.00;97.80
17994;DHT22;9122;48.406;9.984;2023-05-10T06:23:51;15.10;97.80
17994;DHT22;9122;48.406;9.984;2023-05-10T06:26:35;15.00;97.60
17994;DHT22;9122;48.406;9.984;2023-05-10T06:29:20;15.10;97.50
17994;DHT22;9122;48.406;9.984;2023-05-10T06:32:04;15.10;97.50
17994;DHT22;9122;48.406;9.984;2023-05-10T06:34:49;15.10;97.50
17994;DHT22;9122;48.406;9.984;2023-05-10T06:37:33;15.10;97.60
17994;DHT22;9122;48.406;9.984;2023-05-10T06:40:18;15.10;97.60
17994;DHT22;9122;48.406;9.984;2023-05-10T06:43:03;15.10;97.70
17994;DHT22;9122;48.406;9.984;2023-05-10T06:45:48;15.10;97.70
17994;DHT22;9122;48.406;9.984;2023-05-10T06:48:32;15.10;97.70
17994;DHT22;9122;48.406;9.984;2023-05-10T06:51:17;15.20;97.60
17994;DHT22;9122;48.406;9.984;2023-05-10T06:54:02;15.20;97.60
17994;DHT22;9122;48.406;9.984;2023-05-10T06:56:47;15.20;97.70
17994;DHT22;9122;48.406;9.984;2023-05-10T06:59:31;15.20;97.60
17994;DHT22;9122;48.406;9.984;2023-05-10T07:02:15;15.20;97.60
17994;DHT22;9122;48.406;9.984;2023-05-10T07:04:59;15.20;97.50
17994;DHT22;9122;48.406;9.984;2023-05-10T07:07:44;15.20;97.40
17994;DHT22;9122;48.406;9.984;2023-05-10T07:10:28;15.20;97.40
17994;DHT22;9122;48.406;9.984;2023-05-10T07:13:13;15.20;97.40
17994;DHT22;9122;48.406;9.984;2023-05-10T07:15:58;15.20;97.30
17994;DHT22;9122;48.406;9.984;2023-05-10T07:18:43;15.30;97.10
17994;DHT22;9122;48.406;9.984;2023-05-10T07:21:27;15.30;97.00
17994;DHT22;9122;48.406;9.984;2023-05-10T07:24:12;15.30;97.10
17994;DHT22;9122;48.406;9.984;2023-05-10T07:26:57;15.30;97.10
17994;DHT22;9122;48.406;9.984;2023-05-10T07:29:41;15.30;97.10
17994;DHT22;9122;48.406;9.984;2023-05-10T07:32:25;15.30;97.00
17994;DHT22;9122;48.406;9.984;2023-05-10T07:35:10;15.40;97.00
17994;DHT22;9122;48.406;9.984;2023-05-10T07:37:54;15.40;97.20
17994;DHT22;9122;48.406;9.984;2023-05-10T07:40:39;15.40;97.50
17994;DHT22;9122;48.406;9.984;2023-05-10T07:43:23;15.40;97.50
17994;DHT22;9122;48.406;9.984;2023-05-10T07:46:08;15.40;97.20
17994;DHT22;9122;48.406;9.984;2023-05-10T07:48:53;15.40;96.90
17994;DHT22;9122;48.406;9.984;2023-05-10T07:51:38;15.40;96.90
17994;DHT22;9122;48.406;9.984;2023-05-10T07:54:22;15.40;96.80
17994;DHT22;9122;48.406;9.984;2023-05-10T07:57:07;15.50;96.80
17994;DHT22;9122;48.406;9.984;2023-05-10T07:59:51;15.50;96.80
17994;DHT22;9122;48.406;9.984;2023-05-10T08:02:35;15.50;96.60
17994;DHT22;9122;48.406;9.984;2023-05-10T08:05:20;15.50;96.70
17994;DHT22;9122;48.406;9.984;2023-05-10T08:08:05;15.50;96.70
17994;DHT22;9122;48.406;9.984;2023-05-10T08:10:49;15.60;96.70
17994;DHT22;9122;48.406;9.984;2023-05-10T08:13:34;15.60;96.50
17994;DHT22;9122;48.406;9.984;2023-05-10T08:16:18;15.60;96.30
17994;DHT22;9122;48.406;9.984;2023-05-10T08:19:03;15.60;96.30
17994;DHT22;9122;48.406;9.984;2023-05-10T08:21:47;15.60;96.20
17994;DHT22;9122;48.406;9.984;2023-05-10T08:24:32;15.60;96.10
17994;DHT22;9122;48.406;9.984;2023-05-10T08:27:16;15.60;96.10
17994;DHT22;9122;48.406;9.984;2023-05-10T08:30:00;15.70;95.90
17994;DHT22;9122;48.406;9.984;2023-05-10T08:32:45;15.70;95.50
17994;DHT22;9122;48.406;9.984;2023-05-10T08:35:29;15.70;95.50
17994;DHT22;9122;48.406;9.984;2023-05-10T08:38:14;15.70;95.50
17994;DHT22;9122;48.406;9.984;2023-05-10T08:40:59;15.80;95.30
17994;DHT22;9122;48.406;9.984;2023-05-10T08:43:45;15.80;95.10
17994;DHT22;9122;48.406;9.984;2023-05-10T08:46:31;15.90;95.00
17994;DHT22;9122;48.406;9.984;2023-05-10T08:49:17;16.00;94.60
17994;DHT22;9122;48.406;9.984;2023-05-10T08:52:04;16.00;94.30
17994;DHT22;9122;48.406;9.984;2023-05-10T08:54:49;16.00;94.00
17994;DHT22;9122;48.406;9.984;2023-05-10T08:57:34;16.10;94.00
17994;DHT22;9122;48.406;9.984;2023-05-10T09:00:20;16.10;93.90
17994;DHT22;9122;48.406;9.984;2023-05-10T09:03:05;16.20;93.80
17994;DHT22;9122;48.406;9.984;2023-05-10T09:05:50;16.20;93.40
17994;DHT22;9122;48.406;9.984;2023-05-10T09:08:34;16.30;93.10
17994;DHT22;9122;48.406;9.984;2023-05-10T09:11:20;16.30;92.80
17994;DHT22;9122;48.406;9.984;2023-05-10T09:14:05;16.40;92.40
17994;DHT22;9122;48.406;9.984;2023-05-10T09:16:50;16.50;92.00
17994;DHT22;9122;48.406;9.984;2023-05-10T09:19:34;16.50;92.00
17994;DHT22;9122;48.406;9.984;2023-05-10T09:22:20;16.50;92.00
17994;DHT22;9122;48.406;9.984;2023-05-10T09:25:12;16.50;91.90
17994;DHT22;9122;48.406;9.984;2023-05-10T09:27:56;16.50;91.80
17994;DHT22;9122;48.406;9.984;2023-05-10T09:30:40;16.50;91.60
17994;DHT22;9122;48.406;9.984;2023-05-10T09:33:27;16.60;91.40
17994;DHT22;9122;48.406;9.984;2023-05-10T09:36:11;16.60;91.50
17994;DHT22;9122;48.406;9.984;2023-05-10T09:38:57;16.60;91.30
17994;DHT22;9122;48.406;9.984;2023-05-10T09:41:42;16.60;91.20
17994;DHT22;9122;48.406;9.984;2023-05-10T09:44:27;16.70;91.10
17994;DHT22;9122;48.406;9.984;2023-05-10T09:47:17;16.70;91.10
17994;DHT22;9122;48.406;9.984;2023-05-10T09:50:03;16.70;91.10
17994;DHT22;9122;48.406;9.984;2023-05-10T09:53:01;16.70;91.00
17994;DHT22;9122;48.406;9.984;2023-05-10T09:55:47;16.70;90.60
17994;DHT22;9122;48.406;9.984;2023-05-10T09:58:36;16.70;90.50
17994;DHT22;9122;48.406;9.984;2023-05-10T10:01:25;16.80;90.60
17994;DHT22;9122;48.406;9.984;2023-05-10T10:04:10;16.80;90.40
17994;DHT22;9122;48.406;9.984;2023-05-10T10:07:00;16.80;90.50
17994;DHT22;9122;48.406;9.984;2023-05-10T10:09:45;16.80;90.30
17994;DHT22;9122;48.406;9.984;2023-05-10T10:12:30;16.80;90.10
17994;DHT22;9122;48.406;9.984;2023-05-10T10:15:15;16.80;90.10
17994;DHT22;9122;48.406;9.984;2023-05-10T10:18:00;16.90;90.20
17994;DHT22;9122;48.406;9.984;2023-05-10T10:20:45;16.90;90.00
17994;DHT22;9122;48.406;9.984;2023-05-10T10:23:30;16.90;89.40
17994;DHT22;9122;48.406;9.984;2023-05-10T10:26:15;16.90;89.30
17994;DHT22;9122;48.406;9.984;2023-05-10T10:29:26;17.00;88.90
17994;DHT22;9122;48.406;9.984;2023-05-10T10:32:55;17.00;88.90
17994;DHT22;9122;48.406;9.984;2023-05-10T10:35:33;17.00;88.60
17994;DHT22;9122;48.406;9.984;2023-05-10T10:38:17;17.10;88.30
17994;DHT22;9122;48.406;9.984;2023-05-10T10:41:10;17.10;87.80
17994;DHT22;9122;48.406;9.984;2023-05-10T10:47:07;17.10;87.90
17994;DHT22;9122;48.406;9.984;2023-05-10T10:50:13;17.20;88.00
17994;DHT22;9122;48.406;9.984;2023-05-10T10:53:10;17.20;88.00
17994;DHT22;9122;48.406;9.984;2023-05-10T10:56:11;17.20;88.10
17994;DHT22;9122;48.406;9.984;2023-05-10T10:58:59;17.30;88.40
17994;DHT22;9122;48.406;9.984;2023-05-10T11:01:43;17.30;88.30
17994;DHT22;9122;48.406;9.984;2023-05-10T11:04:28;17.30;87.60
17994;DHT22;9122;48.406;9.984;2023-05-10T11:07:17;17.30;88.40
17994;DHT22;9122;48.406;9.984;2023-05-10T11:10:05;17.30;88.20
17994;DHT22;9122;48.406;9.984;2023-05-10T11:13:06;17.30;87.20
17994;DHT22;9122;48.406;9.984;2023-05-10T11:15:51;17.30;87.40
17994;DHT22;9122;48.406;9.984;2023-05-10T11:18:37;17.30;87.10
17994;DHT22;9122;48.406;9.984;2023-05-10T11:21:22;17.30;87.30
17994;DHT22;9122;48.406;9.984;2023-05-10T11:24:13;17.30;87.70
17994;DHT22;9122;48.406;9.984;2023-05-10T11:26:58;17.40;88.00
17994;DHT22;9122;48.406;9.984;2023-05-10T11:29:43;17.30;87.80
17994;DHT22;9122;48.406;9.984;2023-05-10T11:32:27;17.20;87.90
17994;DHT22;9122;48.406;9.984;2023-05-10T11:35:12;17.30;88.30
17994;DHT22;9122;48.406;9.984;2023-05-10T11:37:56;17.30;88.50
17994;DHT22;9122;48.406;9.984;2023-05-10T11:40:41;17.30;88.30
17994;DHT22;9122;48.406;9.984;2023-05-10T11:43:27;17.30;88.40
17994;DHT22;9122;48.406;9.984;2023-05-10T11:46:14;17.40;88.50
17994;DHT22;9122;48.406;9.984;2023-05-10T11:49:01;17.40;88.30
17994;DHT22;9122;48.406;9.984;2023-05-10T11:51:47;17.40;88.20
17994;DHT22;9122;48.406;9.984;2023-05-10T11:54:32;17.40;88.10
17994;DHT22;9122;48.406;9.984;2023-05-10T11:57:19;17.40;87.60
17994;DHT22;9122;48.406;9.984;2023-05-10T12:00:05;17.40;88.20
17994;DHT22;9122;48.406;9.984;2023-05-10T12:02:50;17.40;87.60
17994;DHT22;9122;48.406;9.984;2023-05-10T12:05:35;17.40;87.50
17994;DHT22;9122;48.406;9.984;2023-05-10T12:08:22;17.40;89.70
17994;DHT22;9122;48.406;9.984;2023-05-10T12:11:08;17.40;91.30
17994;DHT22;9122;48.406;9.984;2023-05-10T12:13:55;17.40;91.70
17994;DHT22;9122;48.406;9.984;2023-05-10T12:16:40;17.30;91.80
17994;DHT22;9122;48.406;9.984;2023-05-10T12:19:27;17.30;91.30
17994;DHT22;9122;48.406;9.984;2023-05-10T12:22:11;17.30;90.90
17994;DHT22;9122;48.406;9.984;2023-05-10T12:24:58;17.20;90.80
17994;DHT22;9122;48.406;9.984;2023-05-10T12:27:54;17.10;90.30
17994;DHT22;9122;48.406;9.984;2023-05-10T12:30:39;17.10;90.30
17994;DHT22;9122;48.406;9.984;2023-05-10T12:33:24;17.00;90.10
17994;DHT22;9122;48.406;9.984;2023-05-10T12:36:09;17.00;90.50
17994;DHT22;9122;48.406;9.984;2023-05-10T12:39:02;16.90;90.90
17994;DHT22;9122;48.406;9.984;2023-05-10T12:41:47;16.90;91.10
17994;DHT22;9122;48.406;9.984;2023-05-10T12:44:31;16.90;91.40
17994;DHT22;9122;48.406;9.984;2023-05-10T12:47:15;16.80;91.70
17994;DHT22;9122;48.406;9.984;2023-05-10T12:50:00;16.80;92.10
17994;DHT22;9122;48.406;9.984;2023-05-10T12:52:45;16.80;92.60
17994;DHT22;9122;48.406;9.984;2023-05-10T12:55:29;16.80;92.60
17994;DHT22;9122;48.406;9.984;2023-05-10T12:58:14;16.80;92.90
17994;DHT22;9122;48.406;9.984;2023-05-10T13:00:59;16.70;93.20
17994;DHT22;9122;48.406;9.984;2023-05-10T13:03:44;16.80;93.20
17994;DHT22;9122;48.406;9.984;2023-05-10T13:06:28;16.80;93.20
17994;DHT22;9122;48.406;9.984;2023-05-10T13:09:13;16.70;92.80
17994;DHT22;9122;48.406;9.984;2023-05-10T13:11:57;16.70;93.20
17994;DHT22;9122;48.406;9.984;2023-05-10T13:14:42;16.70;93.50
17994;DHT22;9122;48.406;9.984;2023-05-10T13:17:26;16.70;93.70
17994;DHT22;9122;48.406;9.984;2023-05-10T13:20:10;16.70;93.20
17994;DHT22;9122;48.406;9.984;2023-05-10T13:22:54;16.60;92.80
17994;DHT22;9122;48.406;9.984;2023-05-10T13:25:39;16.60;92.70
17994;DHT22;9122;48.406;9.984;2023-05-10T13:28:23;16.50;92.60
17994;DHT22;9122;48.406;9.984;2023-05-10T13:31:10;16.40;92.70
17994;DHT22;9122;48.406;9.984;2023-05-10T13:33:55;16.30;92.70
17994;DHT22;9122;48.406;9.984;2023-05-10T13:36:39;16.30;93.40
17994;DHT22;9122;48.406;9.984;2023-05-10T13:39:24;16.20;93.00
17994;DHT22;9122;48.406;9.984;2023-05-10T13:42:08;16.20;93.20
17994;DHT22;9122;48.406;9.984;2023-05-10T13:44:53;16.10;93.20
17994;DHT22;9122;48.406;9.984;2023-05-10T13:47:37;16.10;93.50
17994;DHT22;9122;48.406;9.984;2023-05-10T13:50:21;16.10;94.00
17994;DHT22;9122;48.406;9.984;2023-05-10T13:53:06;16.10;94.30
17994;DHT22;9122;48.406;9.984;2023-05-10T13:55:50;16.00;94.30
17994;DHT22;9122;48.406;9.984;2023-05-10T13:58:35;16.00;94.10
17994;DHT22;9122;48.406;9.984;2023-05-10T14:01:20;16.00;94.20
17994;DHT22;9122;48.406;9.984;2023-05-10T14:04:04;16.00;94.00
17994;DHT22;9122;48.406;9.984;2023-05-10T14:06:48;16.00;93.90
17994;DHT22;9122;48.406;9.984;2023-05-10T14:09:33;15.90;94.00
17994;DHT22;9122;48.406;9.984;2023-05-10T14:12:18;15.90;94.10
17994;DHT22;9122;48.406;9.984;2023-05-10T14:15:02;15.90;94.30
17994;DHT22;9122;48.406;9.984;2023-05-10T14:17:46;15.90;94.30
17994;DHT22;9122;48.406;9.984;2023-05-10T14:20:31;15.90;94.10
17994;DHT22;9122;48.406;9.984;2023-05-10T14:23:17;15.90;94.00
17994;DHT22;9122;48.406;9.984;2023-05-10T14:26:03;15.90;93.90
17994;DHT22;9122;48.406;9.984;2023-05-10T14:28:51;15.90;94.00
17994;DHT22;9122;48.406;9.984;2023-05-10T14:31:35;15.90;94.00
17994;DHT22;9122;48.406;9.984;2023-05-10T14:34:20;15.90;94.00
17994;DHT22;9122;48.406;9.984;2023-05-10T14:37:04;15.90;94.10
17994;DHT22;9122;48.406;9.984;2023-05-10T14:39:49;15.80;94.10
17994;DHT22;9122;48.406;9.984;2023-05-10T14:42:34;15.90;94.40
17994;DHT22;9122;48.406;9.984;2023-05-10T14:45:18;15.80;94.20
17994;DHT22;9122;48.406;9.984;2023-05-10T14:48:03;15.80;93.90
17994;DHT22;9122;48.406;9.984;2023-05-10T14:50:48;15.90;94.40
17994;DHT22;9122;48.406;9.984;2023-05-10T14:53:33;15.90;94.20
17994;DHT22;9122;48.406;9.984;2023-05-10T14:56:18;15.80;94.20
17994;DHT22;9122;48.406;9.984;2023-05-10T14:59:03;15.80;94.30
17994;DHT22;9122;48.406;9.984;2023-05-10T15:01:48;15.80;94.30
17994;DHT22;9122;48.406;9.984;2023-05-10T15:04:32;15.80;94.30
17994;DHT22;9122;48.406;9.984;2023-05-10T15:07:17;15.80;94.20
17994;DHT22;9122;48.406;9.984;2023-05-10T15:10:02;15.80;94.30
17994;DHT22;9122;48.406;9.984;2023-05-10T15:12:47;15.80;94.30
17994;DHT22;9122;48.406;9.984;2023-05-10T15:15:31;15.80;94.00
17994;DHT22;9122;48.406;9.984;2023-05-10T15:18:15;15.80;93.90
17994;DHT22;9122;48.406;9.984;2023-05-10T15:21:00;15.80;93.70
17994;DHT22;9122;48.406;9.984;2023-05-10T15:23:45;15.80;94.00
17994;DHT22;9122;48.406;9.984;2023-05-10T15:26:29;15.80;94.10
17994;DHT22;9122;48.406;9.984;2023-05-10T15:29:14;15.80;94.20
17994;DHT22;9122;48.406;9.984;2023-05-10T15:32:03;15.80;94.30
17994;DHT22;9122;48.406;9.984;2023-05-10T15:34:48;15.80;94.40
17994;DHT22;9122;48.406;9.984;2023-05-10T15:37:32;15.80;94.10
17994;DHT22;9122;48.406;9.984;2023-05-10T15:40:17;15.80;94.30
17994;DHT22;9122;48.406;9.984;2023-05-10T15:43:01;15.80;94.50
17994;DHT22;9122;48.406;9.984;2023-05-10T15:45:46;15.80;94.30
17994;DHT22;9122;48.406;9.984;2023-05-10T15:48:30;15.70;94.10
17994;DHT22;9122;48.406;9.984;2023-05-10T15:51:15;15.70;94.30
17994;DHT22;9122;48.406;9.984;2023-05-10T15:54:00;15.70;94.50
17994;DHT22;9122;48.406;9.984;2023-05-10T15:56:45;15.70;94.50
17994;DHT22;9122;48.406;9.984;2023-05-10T15:59:32;15.70;94.60
17994;DHT22;9122;48.406;9.984;2023-05-10T16:02:16;15.70;94.60
17994;DHT22;9122;48.406;9.984;2023-05-10T16:05:02;15.70;94.60
17994;DHT22;9122;48.406;9.984;2023-05-10T16:07:47;15.70;94.60
17994;DHT22;9122;48.406;9.984;2023-05-10T16:10:32;15.60;94.80
17994;DHT22;9122;48.406;9.984;2023-05-10T16:13:17;15.60;95.00
17994;DHT22;9122;48.406;9.984;2023-05-10T16:16:01;15.60;95.10
17994;DHT22;9122;48.406;9.984;2023-05-10T16:18:46;15.60;95.00
17994;DHT22;9122;48.406;9.984;2023-05-10T16:21:34;15.60;95.10
17994;DHT22;9122;48.406;9.984;2023-05-10T16:24:18;15.60;95.20
17994;DHT22;9122;48.406;9.984;2023-05-10T16:27:03;15.60;95.40
17994;DHT22;9122;48.406;9.984;2023-05-10T16:29:48;15.60;95.50
17994;DHT22;9122;48.406;9.984;2023-05-10T16:32:33;15.50;95.60
17994;DHT22;9122;48.406;9.984;2023-05-10T16:35:19;15.50;95.40
17994;DHT22;9122;48.406;9.984;2023-05-10T16:38:03;15.50;95.10
17994;DHT22;9122;48.406;9.984;2023-05-10T16:40:48;15.50;95.10
17994;DHT22;9122;48.406;9.984;2023-05-10T16:43:33;15.40;95.10
17994;DHT22;9122;48.406;9.984;2023-05-10T16:46:17;15.40;95.20
17994;DHT22;9122;48.406;9.984;2023-05-10T16:49:01;15.40;95.20
17994;DHT22;9122;48.406;9.984;2023-05-10T16:51:46;15.40;95.30
17994;DHT22;9122;48.406;9.984;2023-05-10T16:54:30;15.40;95.30
17994;DHT22;9122;48.406;9.984;2023-05-10T16:57:14;15.40;95.30
17994;DHT22;9122;48.406;9.984;2023-05-10T16:59:59;15.30;95.30
17994;DHT22;9122;48.406;9.984;2023-05-10T17:02:43;15.40;95.30
17994;DHT22;9122;48.406;9.984;2023-05-10T17:05:28;15.30;95.10
17994;DHT22;9122;48.406;9.984;2023-05-10T17:08:13;15.30;95.10
17994;DHT22;9122;48.406;9.984;2023-05-10T17:11:00;15.30;95.20
17994;DHT22;9122;48.406;9.984;2023-05-10T17:13:45;15.30;95.20
17994;DHT22;9122;48.406;9.984;2023-05-10T17:16:29;15.30;95.20
17994;DHT22;9122;48.406;9.984;2023-05-10T17:19:14;15.30;95.20
17994;DHT22;9122;48.406;9.984;2023-05-10T17:21:59;15.20;95.20
17994;DHT22;9122;48.406;9.984;2023-05-10T17:24:44;15.20;95.30
17994;DHT22;9122;48.406;9.984;2023-05-10T17:27:28;15.20;95.60
17994;DHT22;9122;48.406;9.984;2023-05-10T17:30:14;15.20;95.60
17994;DHT22;9122;48.406;9.984;2023-05-10T17:32:59;15.20;95.50
17994;DHT22;9122;48.406;9.984;2023-05-10T17:35:44;15.20;95.60
17994;DHT22;9122;48.406;9.984;2023-05-10T17:38:29;15.20;95.60
17994;DHT22;9122;48.406;9.984;2023-05-10T17:41:13;15.20;95.60
17994;DHT22;9122;48.406;9.984;2023-05-10T17:43:58;15.10;95.90
17994;DHT22;9122;48.406;9.984;2023-05-10T17:46:42;15.10;96.00
17994;DHT22;9122;48.406;9.984;2023-05-10T17:49:26;15.10;95.80
17994;DHT22;9122;48.406;9.984;2023-05-10T17:52:11;15.10;95.90
17994;DHT22;9122;48.406;9.984;2023-05-10T17:54:56;15.10;96.00
17994;DHT22;9122;48.406;9.984;2023-05-10T17:57:40;15.10;96.20
17994;DHT22;9122;48.406;9.984;2023-05-10T18:00:24;15.00;96.20
17994;DHT22;9122;48.406;9.984;2023-05-10T18:03:10;15.00;96.30
17994;DHT22;9122;48.406;9.984;2023-05-10T18:05:54;15.00;96.40
17994;DHT22;9122;48.406;9.984;2023-05-10T18:08:39;14.90;96.50